Hlavní strana
METAR-TAF:

METAR-TAF

Letiště :

Mezinárodní letiště Charbin Tchaj-pching

Charbin, Čína

zeměpisná šířka: 45-45N, zeměpisná délka: 126-46E, výška: 143 m

Aktuální stav počasí

Zpráva byla vytvořena před 59 minutami, v 23:00 UTC
vítr z různých směrů 2 kt
Teplota 1°C
Vlhkost vzduchu 80%
Tlak 1022 hPa
Viditelnost 10 km a více
Žádná oblačnost pod 1500 m, nevyskytují se cumulonimby.

METAR: ZYHB 152300Z VRB01MPS CAVOK 01/M02 Q1022 NOSIG

Čas: 07:59 (23:59 UTC)

Předpověď počasí

Zpráva byla vytvořena před 4 hodinami a 52 minutami, v 19:07 UTC
Předpověď platná od 16 v 00 UTC do 16 v 24 UTC
Severozápadní vítr 8 kt
Viditelnost: 6000 m
Skoro jasno ve výšce 3300 ft

TAF: ZYHB 151907Z 1600/1624 32004MPS 6000 FEW033 TX10/1606Z TNM01/21Z

Stav a předpovědi počasí z více než 4 000 letišť (zprávy METAR a TAF).

Červené a žluté tečky na mapě představují dostupné meteorologické stanice.

Když kurzor umístíte na tečku, zobrazí se název stanice.

Pak kliknutím zobrazíte stav a předpověď počasí.

Chcete-li změnit mapu, kliknutím na zelené tlačítko se znaménkem +mapu přiblížíte, kliknutím na zelené tlačítko se znaménkem – mapu oddálíte a kliknutím na zelené šipky přejdete na sousední mapy.


METAR-TAF: